Time;durP1;ratioP1;P1;durP2;ratioP2;P2;SDS_P1;SDS_P2;PMS_P1;PMS_P2;Temp;Humidity;BMP_temperature;BMP_pressure;BME280_temperature;BME280_humidity;BME280_pressure;Samples;Min_cycle;Max_cycle;Signal;HPM_P1;HPM_P2
2023/05/20 00:01:26;;;;;;;4.28;2.20;;;;;;;12.98;65.37;101645.69;4962610;28;20135;-66
2023/05/20 00:03:52;;;;;;;6.72;1.95;;;;;;;13.04;64.77;101629.25;4958571;28;20520;-66
2023/05/20 00:06:17;;;;;;;3.17;1.77;;;;;;;13.08;64.54;101628.38;4957541;28;20041;-66
2023/05/20 00:08:42;;;;;;;2.58;1.75;;;;;;;13.06;64.49;101630.97;4961472;28;20863;-67
2023/05/20 00:11:08;;;;;;;4.35;1.65;;;;;;;13.01;64.73;101632.72;4961579;28;20031;-66
2023/05/20 00:13:34;;;;;;;2.85;1.50;;;;;;;12.95;64.94;101631.00;4963000;28;20125;-65
2023/05/20 00:16:00;;;;;;;4.07;1.42;;;;;;;12.90;64.95;101640.53;4960700;28;20126;-66
2023/05/20 00:18:25;;;;;;;3.13;1.50;;;;;;;12.84;65.09;101642.28;4959626;28;20039;-66
2023/05/20 00:20:53;;;;;;;4.05;1.88;;;;;;;12.82;65.21;101639.69;4959731;28;20039;-65
2023/05/20 00:23:18;;;;;;;2.75;1.70;;;;;;;12.76;65.39;101644.06;4961162;28;20407;-65
2023/05/20 00:25:44;;;;;;;3.88;1.75;;;;;;;12.72;65.60;101647.53;4962502;28;20031;-65
2023/05/20 00:28:09;;;;;;;4.82;1.45;;;;;;;12.66;65.91;101652.72;4960530;28;20057;-66
2023/05/20 00:30:35;;;;;;;3.58;1.75;;;;;;;12.63;66.03;101648.41;4959391;28;20130;-65
2023/05/20 00:33:00;;;;;;;3.08;1.92;;;;;;;12.61;66.74;101654.47;4964505;28;20041;-66
2023/05/20 00:35:25;;;;;;;3.13;1.70;;;;;;;12.58;66.25;101654.47;4962481;28;20066;-66
2023/05/20 00:37:51;;;;;;;3.80;1.45;;;;;;;12.54;66.69;101655.34;4960046;28;20026;-66
2023/05/20 00:40:16;;;;;;;4.00;1.60;;;;;;;12.49;67.41;101654.50;4964668;28;20171;-65
2023/05/20 00:42:42;;;;;;;4.47;1.70;;;;;;;12.43;67.58;101658.81;4967086;28;20034;-66
2023/05/20 00:45:08;;;;;;;2.20;1.60;;;;;;;12.36;67.72;101657.13;4963315;28;20149;-66
2023/05/20 00:47:35;;;;;;;3.15;1.60;;;;;;;12.33;67.90;101653.66;4963411;28;20039;-65
2023/05/20 00:50:02;;;;;;;3.42;1.60;;;;;;;12.29;67.82;101650.19;4961234;28;20030;-66
2023/05/20 00:52:30;;;;;;;5.93;2.03;;;;;;;12.26;68.13;101647.59;4963038;28;20606;-66
2023/05/20 00:54:57;;;;;;;5.30;1.98;;;;;;;12.26;68.15;101647.59;4958914;28;20039;-65
2023/05/20 00:57:22;;;;;;;4.38;1.58;;;;;;;12.26;68.22;101645.00;4961145;28;20686;-65
2023/05/20 00:59:47;;;;;;;3.58;1.70;;;;;;;12.24;68.59;101648.47;4962855;28;20126;-65
2023/05/20 01:02:13;;;;;;;4.40;1.60;;;;;;;12.21;68.91;101646.75;4962650;28;20034;-65
2023/05/20 01:04:38;;;;;;;4.38;1.83;;;;;;;12.17;69.65;101657.13;4964278;28;20078;-66
2023/05/20 01:07:06;;;;;;;3.88;1.67;;;;;;;12.08;70.34;101655.41;4960063;28;20081;-65
2023/05/20 01:09:32;;;;;;;4.05;1.65;;;;;;;11.98;70.59;101653.69;4994856;28;20129;-65
2023/05/20 01:12:09;;;;;;;2.53;1.83;;;;;;;11.89;71.13;101661.47;4964195;28;20057;-65
2023/05/20 01:14:39;;;;;;;3.80;1.88;;;;;;;11.81;71.79;101663.19;4962311;28;20045;-65
2023/05/20 01:17:09;;;;;;;3.97;1.92;;;;;;;11.79;71.85;101659.72;4962969;28;20031;-64
2023/05/20 01:19:42;;;;;;;4.18;2.22;;;;;;;11.77;72.37;101648.50;4961300;28;20056;-64
2023/05/20 01:22:11;;;;;;;4.13;1.95;;;;;;;11.76;72.85;101639.84;4963176;28;20570;-65
2023/05/20 01:24:40;;;;;;;2.92;1.80;;;;;;;11.70;73.22;101634.66;4961028;28;20066;-65
2023/05/20 01:27:09;;;;;;;2.80;1.60;;;;;;;11.64;73.41;101644.16;4975506;28;20038;-65
2023/05/20 01:29:36;;;;;;;3.50;1.85;;;;;;;11.58;73.98;101631.19;4979742;28;20671;-65
2023/05/20 01:32:05;;;;;;;2.75;1.77;;;;;;;11.55;73.75;101633.78;4972596;28;20041;-65
2023/05/20 01:34:32;;;;;;;2.67;1.73;;;;;;;11.51;73.62;101632.94;4968656;28;20047;-65
2023/05/20 01:36:58;;;;;;;4.45;1.60;;;;;;;11.47;73.67;101625.16;4960274;28;20031;-65
2023/05/20 01:39:24;;;;;;;2.72;1.63;;;;;;;11.44;73.75;101627.72;4968200;28;20108;-65
2023/05/20 01:41:50;;;;;;;3.03;1.63;;;;;;;11.43;74.09;101611.31;4964537;28;20051;-65
2023/05/20 01:44:15;;;;;;;3.63;2.10;;;;;;;11.45;73.40;101609.63;4962640;28;20062;-65
2023/05/20 01:46:40;;;;;;;2.63;1.80;;;;;;;11.43;73.82;101613.91;4962029;28;20037;-64
2023/05/20 01:49:06;;;;;;;4.57;1.65;;;;;;;11.44;73.24;101612.19;4978761;28;20038;-65
2023/05/20 01:51:33;;;;;;;3.40;1.80;;;;;;;11.45;73.16;101608.75;4974223;28;20141;-65
2023/05/20 01:53:59;;;;;;;3.50;1.98;;;;;;;11.46;72.97;101603.56;4970936;28;20031;-65
2023/05/20 01:56:24;;;;;;;6.40;1.83;;;;;;;11.46;72.92;101600.97;4964263;28;20027;-65
2023/05/20 01:58:50;;;;;;;4.00;1.60;;;;;;;11.45;73.24;101599.28;4962941;28;20053;-66
2023/05/20 02:01:15;;;;;;;4.82;2.05;;;;;;;11.47;73.19;101599.25;4959920;28;20039;-65
2023/05/20 02:03:41;;;;;;;4.78;1.58;;;;;;;11.43;72.52;101600.06;4979774;28;20044;-65
2023/05/20 02:06:06;;;;;;;2.05;1.73;;;;;;;11.41;73.43;101597.50;4982208;28;22020;-65
2023/05/20 02:08:31;;;;;;;4.43;2.00;;;;;;;11.40;73.00;101597.47;4985604;28;20093;-65
2023/05/20 02:10:57;;;;;;;2.53;1.50;;;;;;;11.34;74.17;101604.38;4991115;28;20034;-64
2023/05/20 02:13:22;;;;;;;4.03;1.90;;;;;;;11.27;74.27;101604.38;4984838;28;20045;-66
2023/05/20 02:15:47;;;;;;;2.20;1.60;;;;;;;11.21;74.60;101612.13;4985196;28;20144;-65
2023/05/20 02:18:13;;;;;;;3.40;2.08;;;;;;;11.15;75.10;101607.81;4983631;28;20042;-66
2023/05/20 02:20:38;;;;;;;4.45;1.83;;;;;;;11.11;74.84;101605.19;4984262;28;20046;-65
2023/05/20 02:23:04;;;;;;;3.88;2.35;;;;;;;11.08;75.32;101602.59;4987699;28;20566;-65
2023/05/20 02:25:31;;;;;;;3.97;2.10;;;;;;;11.09;74.62;101599.16;4982962;28;20129;-65
2023/05/20 02:27:56;;;;;;;3.03;1.95;;;;;;;11.09;74.60;101601.75;4990169;28;20042;-65
2023/05/20 02:30:21;;;;;;;2.35;1.77;;;;;;;11.05;75.01;101606.03;4984082;28;20035;-65
2023/05/20 02:32:47;;;;;;;3.42;1.70;;;;;;;11.02;75.19;101603.44;4984812;28;20517;-65
2023/05/20 02:35:12;;;;;;;3.47;1.67;;;;;;;10.99;75.28;101608.59;4988017;28;20053;-65
2023/05/20 02:37:38;;;;;;;4.47;2.13;;;;;;;10.97;76.09;101606.88;4985932;28;20037;-65
2023/05/20 02:40:05;;;;;;;2.85;1.55;;;;;;;10.93;76.08;101603.41;4984577;28;20031;-65
2023/05/20 02:42:30;;;;;;;10.85;2.15;;;;;;;10.89;76.86;101601.66;4983041;28;20068;-65
2023/05/20 02:44:57;;;;;;;3.95;1.80;;;;;;;10.87;76.94;101602.50;4984683;28;20038;-65
2023/05/20 02:47:24;;;;;;;3.33;1.80;;;;;;;10.88;76.58;101599.94;4987501;28;20112;-65
2023/05/20 02:49:49;;;;;;;2.85;1.92;;;;;;;10.91;76.50;101599.09;4984218;28;20161;-65
2023/05/20 02:52:15;;;;;;;3.03;1.65;;;;;;;10.93;76.09;101589.59;4989864;28;20497;-65
2023/05/20 02:54:40;;;;;;;2.63;1.77;;;;;;;10.96;76.42;101590.47;4978532;28;20213;-64
2023/05/20 02:57:06;;;;;;;3.88;2.42;;;;;;;10.99;76.07;101590.50;4990785;28;20035;-65
2023/05/20 02:59:31;;;;;;;2.88;2.10;;;;;;;10.99;75.90;101585.31;4993191;28;20046;-64
2023/05/20 03:01:56;;;;;;;4.35;2.03;;;;;;;11.01;75.63;101593.09;4990116;28;20038;-65
2023/05/20 03:04:24;;;;;;;5.70;2.10;;;;;;;11.02;75.47;101585.31;4986798;28;20041;-64
2023/05/20 03:06:50;;;;;;;4.90;2.08;;;;;;;11.04;75.36;101580.19;4986515;28;20527;-65
2023/05/20 03:09:17;;;;;;;4.57;1.85;;;;;;;11.06;75.00;101578.44;4981193;28;20128;-65
2023/05/20 03:11:43;;;;;;;4.07;1.83;;;;;;;11.05;74.88;101568.94;4983261;28;20046;-65
2023/05/20 03:14:08;;;;;;;2.65;1.98;;;;;;;11.05;74.74;101566.34;4982105;28;20447;-65
2023/05/20 03:16:34;;;;;;;5.28;1.95;;;;;;;11.06;74.21;101571.56;4981737;28;20810;-66
2023/05/20 03:19:00;;;;;;;3.05;1.80;;;;;;;11.07;74.67;101572.44;4988842;28;20945;-65
2023/05/20 03:21:25;;;;;;;2.60;1.80;;;;;;;11.06;74.57;101570.69;4981019;28;20026;-65
2023/05/20 03:23:51;;;;;;;2.88;1.95;;;;;;;11.03;74.82;101570.69;4979415;28;20041;-65
2023/05/20 03:26:16;;;;;;;3.30;2.17;;;;;;;10.98;75.04;101581.00;4982173;28;20037;-65
2023/05/20 03:28:41;;;;;;;3.65;2.13;;;;;;;10.96;75.33;101585.31;4984142;28;20076;-65
2023/05/20 03:31:07;;;;;;;2.85;1.77;;;;;;;10.92;76.20;101587.91;4975512;28;20088;-66
2023/05/20 03:33:33;;;;;;;3.35;2.20;;;;;;;10.87;76.66;101587.00;4980062;28;20053;-65
2023/05/20 03:35:59;;;;;;;3.25;2.20;;;;;;;10.82;76.43;101586.13;4981486;28;20041;-65
2023/05/20 03:38:25;;;;;;;4.20;2.00;;;;;;;10.77;77.36;101588.72;4985318;28;20034;-65
2023/05/20 03:40:50;;;;;;;4.85;2.33;;;;;;;10.73;77.64;101594.72;4978172;28;20041;-65
2023/05/20 03:43:15;;;;;;;5.85;2.08;;;;;;;10.68;78.08;101594.69;4980052;28;20133;-65
2023/05/20 03:45:41;;;;;;;3.45;2.50;;;;;;;10.64;77.80;101590.38;4976917;28;20062;-67
2023/05/20 03:48:06;;;;;;;3.80;2.22;;;;;;;10.62;77.83;101599.81;4980034;28;20047;-66
2023/05/20 03:50:31;;;;;;;3.78;2.10;;;;;;;10.61;78.61;101594.66;4978951;28;20528;-65
2023/05/20 03:52:57;;;;;;;5.00;2.58;;;;;;;10.61;78.14;101595.53;4983139;28;20128;-66
2023/05/20 03:55:23;;;;;;;3.75;2.40;;;;;;;10.63;78.67;101598.09;4978504;28;20077;-65
2023/05/20 03:57:49;;;;;;;4.10;2.20;;;;;;;10.64;79.02;101599.84;4979039;28;20057;-65
2023/05/20 04:00:15;;;;;;;5.90;2.85;;;;;;;10.66;78.49;101596.41;4978094;28;20292;-65
2023/05/20 04:02:41;;;;;;;3.30;2.50;;;;;;;10.70;78.53;101599.88;4976420;28;20559;-65
2023/05/20 04:05:10;;;;;;;3.40;2.08;;;;;;;10.72;78.61;101600.72;4984982;28;20093;-65
2023/05/20 04:07:36;;;;;;;4.15;2.38;;;;;;;10.77;78.86;101589.53;4983723;28;20116;-65
2023/05/20 04:10:03;;;;;;;4.03;2.40;;;;;;;10.83;79.09;101588.72;4983701;28;20042;-65
2023/05/20 04:12:30;;;;;;;4.78;2.90;;;;;;;10.91;78.43;101587.03;4985804;28;20042;-64
2023/05/20 04:15:02;;;;;;;3.67;2.00;;;;;;;10.97;78.90;101586.19;4980673;28;20042;-65
2023/05/20 04:17:31;;;;;;;7.53;2.60;;;;;;;11.03;78.43;101583.63;4982903;28;20042;-64
2023/05/20 04:19:58;;;;;;;8.27;2.38;;;;;;;11.10;78.92;101581.03;4981623;28;20148;-64
2023/05/20 04:22:25;;;;;;;6.90;2.65;;;;;;;11.18;78.23;101591.41;4982317;28;20026;-65
2023/05/20 04:24:50;;;;;;;7.07;2.67;;;;;;;11.21;77.75;101586.25;4987526;28;20048;-64
2023/05/20 04:27:16;;;;;;;4.07;2.55;;;;;;;11.26;77.35;101589.69;4983986;28;20034;-64
2023/05/20 04:29:44;;;;;;;3.00;2.25;;;;;;;11.30;77.35;101583.69;4982966;28;20089;-65
2023/05/20 04:32:19;;;;;;;4.95;2.70;;;;;;;11.33;76.84;101576.78;4985284;28;20042;-64
2023/05/20 04:34:45;;;;;;;3.65;2.50;;;;;;;11.39;76.68;101580.25;4979923;28;20060;-65
2023/05/20 04:37:12;;;;;;;4.13;2.70;;;;;;;11.42;76.43;101577.66;4981154;28;20104;-65
2023/05/20 04:39:38;;;;;;;6.30;2.88;;;;;;;11.44;76.72;101578.53;4990242;28;20043;-64
2023/05/20 04:42:04;;;;;;;3.95;2.45;;;;;;;11.46;76.17;101576.81;4985686;28;20117;-64
2023/05/20 04:44:30;;;;;;;5.38;2.72;;;;;;;11.51;75.94;101577.69;4984674;28;20085;-64
2023/05/20 04:46:59;;;;;;;6.10;3.50;;;;;;;11.54;76.01;101580.28;4981059;28;20030;-64
2023/05/20 04:49:25;;;;;;;3.80;2.17;;;;;;;11.59;75.80;101581.16;4985735;28;20038;-64
2023/05/20 04:51:51;;;;;;;7.45;2.53;;;;;;;11.67;75.27;101579.41;4982975;28;20096;-64
2023/05/20 04:54:17;;;;;;;3.17;2.33;;;;;;;11.77;74.39;101569.06;4982948;28;20037;-64
2023/05/20 04:56:45;;;;;;;4.93;2.58;;;;;;;11.83;73.97;101563.88;4985077;28;20042;-64
2023/05/20 04:59:11;;;;;;;3.90;2.50;;;;;;;11.89;73.69;101553.53;4983956;28;20060;-64
2023/05/20 05:01:37;;;;;;;4.70;2.38;;;;;;;11.98;72.90;101551.78;4984952;28;20480;-64
2023/05/20 05:04:02;;;;;;;3.50;2.13;;;;;;;12.07;72.98;101550.03;4983175;28;20121;-67
2023/05/20 05:06:28;;;;;;;7.03;2.75;;;;;;;12.16;72.46;101546.56;4986668;28;20045;-65
2023/05/20 05:08:53;;;;;;;3.85;2.30;;;;;;;12.24;72.50;101550.84;4987986;28;20061;-66
2023/05/20 05:11:18;;;;;;;3.58;2.35;;;;;;;12.33;71.89;101542.19;4983869;28;20030;-65
2023/05/20 05:13:44;;;;;;;5.95;3.05;;;;;;;12.45;71.26;101532.63;4984370;28;20117;-66
2023/05/20 05:16:09;;;;;;;6.85;2.70;;;;;;;12.61;70.84;101524.81;4980245;28;20050;-66
2023/05/20 05:18:35;;;;;;;3.75;2.00;;;;;;;12.76;70.39;101522.97;4985726;28;20046;-66
2023/05/20 05:21:01;;;;;;;4.63;2.13;;;;;;;12.86;70.17;101518.59;4981634;28;20043;-65
2023/05/20 05:23:26;;;;;;;3.80;2.30;;;;;;;12.95;69.66;101506.44;4982606;28;20121;-65
2023/05/20 05:25:52;;;;;;;3.58;2.70;;;;;;;13.03;69.43;101498.63;4983807;28;20499;-65
2023/05/20 05:28:18;;;;;;;4.30;2.13;;;;;;;13.16;69.50;101500.28;4983971;28;20655;-65
2023/05/20 05:30:43;;;;;;;3.88;2.30;;;;;;;13.25;69.19;101505.41;4983084;28;20050;-64
2023/05/20 05:33:09;;;;;;;4.25;2.13;;;;;;;13.39;68.69;101489.69;4983353;28;20990;-65
2023/05/20 05:35:35;;;;;;;5.25;2.40;;;;;;;13.50;68.39;101491.31;4976212;28;20039;-65
2023/05/20 05:38:00;;;;;;;3.97;2.33;;;;;;;13.62;67.48;101480.00;4985498;28;20042;-65
2023/05/20 05:40:26;;;;;;;5.03;2.40;;;;;;;13.74;67.73;101477.25;4985076;28;20038;-65
2023/05/20 05:42:52;;;;;;;5.00;2.55;;;;;;;13.87;67.24;101472.78;4983876;28;20038;-65
2023/05/20 05:45:17;;;;;;;4.15;2.70;;;;;;;13.92;66.34;101471.88;4981946;28;20041;-65
2023/05/20 05:47:42;;;;;;;2.70;2.08;;;;;;;13.99;66.34;101464.88;4987178;28;20065;-65
2023/05/20 05:50:09;;;;;;;4.53;2.28;;;;;;;14.05;66.84;101464.78;4984423;28;20038;-65
2023/05/20 05:52:34;;;;;;;4.53;2.40;;;;;;;14.07;65.79;101450.03;4979564;28;20141;-65
2023/05/20 05:55:00;;;;;;;4.22;2.47;;;;;;;14.07;65.56;101458.69;4980808;28;20038;-65
2023/05/20 05:57:26;;;;;;;6.22;2.80;;;;;;;14.11;65.57;101463.00;4979404;28;20035;-66
2023/05/20 05:59:51;;;;;;;3.25;2.47;;;;;;;14.22;66.39;101464.63;4981791;28;20749;-65
2023/05/20 06:02:17;;;;;;;7.00;2.78;;;;;;;14.39;65.95;101463.56;4978991;28;20037;-65
2023/05/20 06:04:42;;;;;;;5.40;2.38;;;;;;;14.56;66.58;101469.41;4982144;28;20050;-65
2023/05/20 06:07:08;;;;;;;4.25;2.45;;;;;;;14.75;65.54;101458.72;4986312;28;20039;-65
2023/05/20 06:09:33;;;;;;;6.53;2.83;;;;;;;14.76;64.27;101430.06;4984574;28;20116;-64
2023/05/20 06:11:59;;;;;;;4.47;2.70;;;;;;;14.71;64.24;101442.31;4984088;28;20415;-65
2023/05/20 06:14:24;;;;;;;3.55;2.67;;;;;;;14.84;65.16;101461.19;4982953;28;20470;-65
2023/05/20 06:16:50;;;;;;;3.75;2.70;;;;;;;14.96;66.03;101474.03;4983090;28;20709;-65
2023/05/20 06:19:15;;;;;;;6.93;2.83;;;;;;;14.94;64.42;101447.16;4981569;28;20046;-65
2023/05/20 06:21:41;;;;;;;7.18;3.22;;;;;;;14.91;64.71;101452.41;4983059;28;20466;-65
2023/05/20 06:24:06;;;;;;;4.88;2.80;;;;;;;15.00;64.23;101449.66;4984337;28;20045;-64
2023/05/20 06:26:32;;;;;;;4.75;3.10;;;;;;;14.95;63.61;101443.69;4984394;28;20668;-65
2023/05/20 06:28:57;;;;;;;4.32;2.70;;;;;;;14.97;63.60;101439.28;4982578;28;20073;-65
2023/05/20 06:31:22;;;;;;;4.75;2.47;;;;;;;15.06;64.15;101457.38;4982532;28;20952;-65
2023/05/20 06:33:48;;;;;;;4.40;2.50;;;;;;;15.10;64.04;101448.66;4979984;28;20042;-65
2023/05/20 06:36:13;;;;;;;5.68;2.70;;;;;;;15.13;63.25;101436.44;4979153;28;20078;-65
2023/05/20 06:38:39;;;;;;;6.10;2.80;;;;;;;15.09;63.01;101439.09;4980925;28;20045;-65
2023/05/20 06:41:04;;;;;;;3.97;2.72;;;;;;;15.17;62.81;101445.03;4985978;28;20823;-65
2023/05/20 06:43:29;;;;;;;4.93;2.63;;;;;;;15.20;62.72;101429.34;4980766;28;20526;-65
2023/05/20 06:45:55;;;;;;;3.80;2.67;;;;;;;15.34;62.61;101432.63;4983048;28;20037;-64
2023/05/20 06:48:20;;;;;;;5.45;2.72;;;;;;;15.51;63.28;101437.53;4979426;28;20823;-65
2023/05/20 06:50:46;;;;;;;5.07;3.08;;;;;;;15.68;62.14;101422.47;4978764;28;20050;-65
2023/05/20 06:53:11;;;;;;;3.58;2.67;;;;;;;15.76;61.60;101402.34;4980186;28;20254;-65
2023/05/20 06:55:37;;;;;;;3.35;2.50;;;;;;;15.74;61.01;101398.88;4978173;28;20045;-66
2023/05/20 06:58:02;;;;;;;5.25;2.80;;;;;;;15.81;61.96;101415.28;4978122;28;20156;-66
2023/05/20 07:00:28;;;;;;;3.75;2.80;;;;;;;15.73;61.62;101413.66;4982266;28;20439;-64
2023/05/20 07:02:53;;;;;;;6.43;3.20;;;;;;;15.90;62.51;101423.78;4981988;28;20038;-65
2023/05/20 07:05:19;;;;;;;4.30;2.83;;;;;;;16.25;61.92;101423.91;4991573;28;20038;-65
2023/05/20 07:07:44;;;;;;;4.78;3.00;;;;;;;16.43;60.29;101377.44;4980942;28;20041;-68
2023/05/20 07:10:10;;;;;;;7.78;3.33;;;;;;;16.30;60.24;101374.22;4984289;28;20073;-65
2023/05/20 07:12:35;;;;;;;4.78;2.80;;;;;;;16.58;59.42;101377.09;4982085;28;20050;-67
2023/05/20 07:15:01;;;;;;;4.60;2.58;;;;;;;16.79;59.05;101355.72;4978872;28;20515;-66
2023/05/20 07:17:28;;;;;;;5.28;3.13;;;;;;;16.73;58.83;101359.31;4972915;28;20042;-65
2023/05/20 07:19:54;;;;;;;4.90;2.92;;;;;;;16.74;58.24;101350.56;4976954;28;20034;-64
2023/05/20 07:22:19;;;;;;;3.35;2.88;;;;;;;16.42;60.09;101380.94;4980342;28;20061;-64
2023/05/20 07:24:45;;;;;;;8.15;2.97;;;;;;;16.63;59.21;101365.63;4978608;28;20746;-65
2023/05/20 07:27:11;;;;;;;4.82;3.13;;;;;;;16.66;60.86;101390.81;4984697;28;20046;-65
2023/05/20 07:29:37;;;;;;;4.93;3.03;;;;;;;16.75;59.98;101374.94;4975833;28;20082;-65
2023/05/20 07:32:07;;;;;;;4.85;2.83;;;;;;;16.78;59.55;101359.22;4982819;28;20038;-66
2023/05/20 07:34:32;;;;;;;6.13;2.72;;;;;;;17.03;59.17;101357.75;4979632;28;20038;-68
2023/05/20 07:36:58;;;;;;;5.05;2.80;;;;;;;17.09;58.97;101352.34;4974024;28;20034;-65
2023/05/20 07:39:23;;;;;;;5.38;3.28;;;;;;;17.27;59.25;101356.25;4977008;28;20427;-65
2023/05/20 07:41:49;;;;;;;4.38;2.75;;;;;;;17.58;59.07;101358.88;4992620;28;20109;-65
2023/05/20 07:44:17;;;;;;;5.38;2.78;;;;;;;17.57;57.36;101325.81;4988708;28;20543;-65
2023/05/20 07:46:43;;;;;;;4.97;3.30;;;;;;;17.53;57.70;101332.88;4986552;28;20077;-65
2023/05/20 07:49:09;;;;;;;3.00;2.70;;;;;;;17.56;57.23;101318.84;4982682;28;20164;-65
2023/05/20 07:51:34;;;;;;;3.83;2.50;;;;;;;17.69;58.00;101330.69;4975904;28;20046;-66
2023/05/20 07:54:00;;;;;;;4.65;2.78;;;;;;;17.68;57.58;101319.38;4979297;28;20574;-66
2023/05/20 07:56:25;;;;;;;6.03;3.10;;;;;;;17.70;57.17;101312.31;4981354;28;21077;-67
2023/05/20 07:58:54;;;;;;;3.88;2.97;;;;;;;17.42;57.21;101314.84;4977967;28;20033;-65
2023/05/20 08:01:20;;;;;;;5.75;3.17;;;;;;;17.32;58.10;101334.31;4980619;28;20124;-66
2023/05/20 08:03:45;;;;;;;4.43;2.88;;;;;;;17.44;59.00;101343.56;4980653;28;20330;-66
2023/05/20 08:06:11;;;;;;;3.28;2.40;;;;;;;17.66;57.13;101315.91;4984437;28;20041;-67
2023/05/20 08:08:36;;;;;;;4.32;2.60;;;;;;;17.77;56.90;101310.41;4979584;28;20042;-66
2023/05/20 08:11:02;;;;;;;5.70;2.60;;;;;;;18.06;57.04;101314.78;4978940;28;20574;-66
2023/05/20 08:13:28;;;;;;;3.83;2.70;;;;;;;18.14;56.74;101305.78;4982659;28;20103;-66
2023/05/20 08:15:53;;;;;;;5.80;3.10;;;;;;;18.31;57.73;101321.84;4980277;28;20046;-66
2023/05/20 08:18:19;;;;;;;5.95;3.28;;;;;;;18.66;56.04;101291.91;4981248;28;20038;-65
2023/05/20 08:20:44;;;;;;;4.07;2.90;;;;;;;18.94;54.61;101268.28;4976297;28;20534;-66
2023/05/20 08:23:10;;;;;;;4.38;2.60;;;;;;;18.97;54.59;101270.78;4981017;28;20148;-65
2023/05/20 08:25:37;;;;;;;6.30;2.58;;;;;;;19.23;54.43;101273.38;4977535;28;20046;-66
2023/05/20 08:28:04;;;;;;;5.00;3.15;;;;;;;19.15;53.58;101264.03;4984203;28;20039;-65
2023/05/20 08:30:30;;;;;;;4.18;2.80;;;;;;;19.14;54.57;101272.84;4977621;28;20057;-66
2023/05/20 08:32:55;;;;;;;8.02;3.17;;;;;;;19.31;54.34;101273.94;4979118;28;20566;-67
2023/05/20 08:35:22;;;;;;;5.10;2.72;;;;;;;19.54;54.16;101267.84;4979293;28;20033;-65
2023/05/20 08:37:48;;;;;;;6.18;3.00;;;;;;;19.59;53.51;101245.78;4978892;28;20030;-66
2023/05/20 08:40:14;;;;;;;4.10;3.00;;;;;;;19.84;54.28;101266.72;4977012;28;20050;-66
2023/05/20 08:42:42;;;;;;;6.35;2.83;;;;;;;19.67;55.14;101283.97;4980546;28;20042;-66
2023/05/20 08:45:12;;;;;;;6.97;2.70;;;;;;;19.80;54.69;101282.66;4978950;28;20189;-67
2023/05/20 08:47:42;;;;;;;4.13;2.88;;;;;;;19.79;53.09;101246.81;4975102;28;20476;-66
2023/05/20 08:50:09;;;;;;;2.92;2.60;;;;;;;19.75;52.75;101245.19;4979795;28;20041;-64
2023/05/20 08:52:37;;;;;;;7.28;2.25;;;;;;;19.86;52.81;101240.44;4973228;28;20058;-66
2023/05/20 08:55:06;;;;;;;11.48;3.20;;;;;;;19.76;51.70;101226.78;4980525;28;20429;-66
2023/05/20 08:57:32;;;;;;;8.77;2.97;;;;;;;19.61;52.56;101251.84;4981784;28;20035;-65
2023/05/20 08:59:58;;;;;;;5.93;2.80;;;;;;;19.78;53.23;101261.69;4981715;28;20050;-66
2023/05/20 09:02:24;;;;;;;5.25;2.95;;;;;;;19.80;52.44;101248.56;4982783;28;20022;-65
2023/05/20 09:04:50;;;;;;;7.45;3.17;;;;;;;20.02;52.57;101250.25;5020206;28;20044;-66
2023/05/20 09:07:28;;;;;;;5.78;3.45;;;;;;;20.23;52.90;101252.94;4985844;28;20032;-67
2023/05/20 09:09:53;;;;;;;3.38;2.63;;;;;;;20.22;51.39;101227.59;4985148;28;20552;-66
2023/05/20 09:12:20;;;;;;;6.90;2.72;;;;;;;20.19;52.94;101257.44;4988529;28;20038;-66
2023/05/20 09:14:45;;;;;;;5.45;3.10;;;;;;;19.93;52.63;101252.38;4983694;28;20475;-66
2023/05/20 09:17:12;;;;;;;2.65;2.33;;;;;;;19.84;53.27;101264.09;4985687;28;20517;-66
2023/05/20 09:19:37;;;;;;;3.33;2.50;;;;;;;19.85;52.23;101241.34;4979645;28;20042;-66
2023/05/20 09:22:04;;;;;;;8.20;2.83;;;;;;;19.85;52.89;101247.44;4986354;28;20034;-66
2023/05/20 09:24:30;;;;;;;4.63;2.55;;;;;;;19.84;52.65;101242.25;4982546;28;20033;-67
2023/05/20 09:26:56;;;;;;;7.43;3.20;;;;;;;19.96;53.43;101255.75;4989758;28;20096;-65
2023/05/20 09:29:22;;;;;;;6.88;3.35;;;;;;;19.96;53.81;101250.50;4983539;28;20097;-66
2023/05/20 09:31:48;;;;;;;4.85;2.72;;;;;;;20.17;53.74;101262.78;5012479;28;20031;-67
2023/05/20 09:34:15;;;;;;;6.30;2.83;;;;;;;20.51;52.78;101238.59;4986022;28;20029;-67
2023/05/20 09:36:43;;;;;;;5.57;3.30;;;;;;;20.78;53.63;101256.81;4990217;28;20050;-67
2023/05/20 09:39:13;;;;;;;3.88;2.70;;;;;;;21.00;52.60;101242.66;4977721;28;20141;-67
2023/05/20 09:41:45;;;;;;;4.47;3.03;;;;;;;21.15;51.58;101225.38;4982318;28;20887;-67
2023/05/20 09:44:11;;;;;;;4.30;2.75;;;;;;;21.27;50.77;101206.41;4979341;28;20046;-67
2023/05/20 09:46:39;;;;;;;4.32;2.63;;;;;;;21.44;50.35;101195.09;4981172;28;20062;-67
2023/05/20 09:49:06;;;;;;;5.32;2.70;;;;;;;21.39;50.93;101210.25;4980360;28;20038;-67
2023/05/20 09:51:33;;;;;;;5.80;2.65;;;;;;;21.50;50.96;101215.88;4981472;28;20042;-67
2023/05/20 09:53:59;;;;;;;3.47;3.00;;;;;;;21.21;50.71;101218.06;4981139;28;20041;-67
2023/05/20 09:56:27;;;;;;;4.35;2.85;;;;;;;21.34;50.59;101215.75;4983106;28;20037;-67
2023/05/20 09:58:57;;;;;;;4.03;2.67;;;;;;;21.37;50.12;101214.75;4980344;28;20018;-67
2023/05/20 10:01:23;;;;;;;3.53;2.63;;;;;;;21.03;49.72;101202.25;4978211;28;20070;-67
2023/05/20 10:03:48;;;;;;;9.30;2.75;;;;;;;20.97;49.41;101198.13;4979873;28;20125;-67
2023/05/20 10:06:50;;;;;;;3.63;2.55;;;;;;;21.17;49.26;101216.47;4985210;28;20038;-67
2023/05/20 10:09:36;;;;;;;5.32;2.83;;;;;;;21.01;51.41;101246.16;4979750;28;20044;-68
2023/05/20 10:12:28;;;;;;;5.40;2.67;;;;;;;20.93;49.56;101212.31;4983553;28;20046;-67
2023/05/20 10:15:09;;;;;;;3.85;2.88;;;;;;;21.05;51.75;101260.84;4978751;28;20042;-67
2023/05/20 10:17:50;;;;;;;4.47;3.10;;;;;;;20.96;50.13;101229.72;4981195;28;20038;-67
2023/05/20 10:20:15;;;;;;;5.38;2.97;;;;;;;21.07;49.83;101220.47;4981004;28;20052;-67
2023/05/20 10:22:40;;;;;;;4.03;2.83;;;;;;;21.04;50.34;101225.00;4982117;28;20783;-67
2023/05/20 10:25:11;;;;;;;3.65;2.75;;;;;;;21.00;50.44;101226.03;4994018;28;20038;-67
2023/05/20 10:27:44;;;;;;;4.20;2.80;;;;;;;21.04;51.38;101246.03;4980041;28;20771;-67
2023/05/20 10:30:18;;;;;;;4.70;3.03;;;;;;;20.85;51.84;101245.09;4978868;28;20656;-67
2023/05/20 10:32:59;;;;;;;5.70;3.00;;;;;;;20.95;50.82;101234.16;4978207;28;20133;-67
2023/05/20 10:35:26;;;;;;;4.72;3.45;;;;;;;20.89;50.34;101223.03;4980922;28;20030;-67
2023/05/20 10:37:53;;;;;;;6.38;3.17;;;;;;;20.88;50.34;101224.81;4982594;28;20109;-67
2023/05/20 10:40:21;;;;;;;4.63;3.30;;;;;;;20.93;52.06;101256.16;4980485;28;20038;-67
2023/05/20 10:42:47;;;;;;;3.47;3.05;;;;;;;20.92;51.47;101252.66;4981215;28;20176;-68
2023/05/20 10:45:25;;;;;;;8.55;3.30;;;;;;;20.53;51.09;101234.16;4979676;28;20042;-67
2023/05/20 10:47:55;;;;;;;16.17;4.75;;;;;;;20.77;51.95;101253.31;4978178;28;20659;-67
2023/05/20 10:50:35;;;;;;;6.63;3.20;;;;;;;21.18;50.93;101235.75;4981071;28;20030;-67
2023/05/20 10:53:05;;;;;;;7.57;4.05;;;;;;;21.23;49.57;101208.31;4981322;28;20077;-67
2023/05/20 10:55:38;;;;;;;4.63;3.00;;;;;;;21.23;50.13;101212.72;4977555;28;20542;-68
2023/05/20 10:58:05;;;;;;;4.55;3.50;;;;;;;21.51;51.07;101225.47;4983269;28;20061;-67
2023/05/20 11:00:33;;;;;;;3.72;3.20;;;;;;;21.67;48.64;101194.94;4980897;28;20042;-67
2023/05/20 11:02:59;;;;;;;4.32;3.17;;;;;;;21.43;50.47;101222.34;4979389;28;20038;-68
2023/05/20 11:05:26;;;;;;;5.25;3.20;;;;;;;21.37;49.48;101207.72;4975812;28;20503;-68
2023/05/20 11:07:59;;;;;;;5.47;3.13;;;;;;;21.23;49.22;101197.81;4975446;28;20507;-67
2023/05/20 11:10:25;;;;;;;5.20;3.40;;;;;;;21.30;49.79;101201.00;4976528;28;20045;-69
2023/05/20 11:12:51;;;;;;;6.30;3.22;;;;;;;21.25;50.61;101218.78;4982430;28;20046;-69
2023/05/20 11:15:16;;;;;;;5.80;3.65;;;;;;;21.24;50.13;101219.69;4980114;28;20045;-67
2023/05/20 11:17:53;;;;;;;4.90;3.60;;;;;;;21.11;51.31;101221.16;4980523;28;20050;-68
2023/05/20 11:20:19;;;;;;;4.18;3.35;;;;;;;21.09;51.48;101238.78;4980245;28;20030;-67
2023/05/20 11:22:44;;;;;;;5.32;3.30;;;;;;;21.15;52.08;101249.88;4983313;28;20060;-68